SBSVSBJP

Guest
Details From SBSV - Salvador Bahia Deputado Luis Eduardo M
To SBJP - Presidente Castro Pinto
Flight Number -
Tags Decoded
Created
Modified
Stats Distance 400 nm / 741 km
Max Altitude 0 ft / 0 m
Waypoints 2
Social Downloads 6
Likes 0
Share VATSIM

Download

Looking for another format? Having issues loading an existing format? Contact us
Advertisement - Login to hide

Notes

Decoded

Route

SBSV SBJP

ID Type Via Altitude Latitude Longitude Leg Dist Tot Dist Heading (true) Name
O SBSV APT - 0 ft / 0 m -12.90821˚ -38.34316˚ - 0 nm - -
O SBJP APT - 0 ft / 0 m -7.14026˚ -34.95867˚ 400 nm 400 nm 30° / 30° -

Altitude Profile

Advertisement - Login to hide

Weather


0- 5 10 15 20 25 30 35+ Temperature / ° C

Clouds and Precipitation
Forecast for 2018-05-21 12:00 UTC. Updated 36 minutes ago

Ground ~20,000 ft ~40,000 ft Winds

SBSV

Details ICAO SBSV (SSA)
Name Salvador Bahia Deputado Luis Eduardo M
Region Brazil
Timezone America/Bahia (UTC-3.0)
Stats Elevation 64 ft / 20 m (AMSL)
Location -12.910994° -38.331043°
Runways 2
Magnetic Variation 23.445° W

METAR

SBSV 211100Z 00000KT 9999 FEW020 28/24 Q1014

Decode

TAF

TAF SBSV 210200Z 2106/2206 30003KT 9000 SCT015 TN25/2108Z TX32/2115Z BECMG 2111/2113 10009KT RMK PEI

Decode

Departure Runways

ID Width Length Bearing (true) Bearing (mag) Surface Threshold Offset Overrun Length
10 148 ft / 45 m 9,845 ft / 3,001 m 78.32° 101.77° Asphalt 0 ft / 0 m 205 ft / 62 m
17 148 ft / 45 m 5,014 ft / 1,528 m 144.04° 167.49° Asphalt 0 ft / 0 m 0 ft / 0 m
28 148 ft / 45 m 9,845 ft / 3,001 m 258.31° 281.76° Asphalt 0 ft / 0 m 205 ft / 62 m
35 148 ft / 45 m 5,014 ft / 1,528 m 324.04° 347.49° Asphalt 0 ft / 0 m 0 ft / 0 m

SBJP

Details ICAO SBJP (JPA)
Name Presidente Castro Pinto
Region Brazil
Timezone America/Fortaleza (UTC-3.0)
Stats Elevation 215 ft / 66 m (AMSL)
Location -7.148382° -34.950680°
Runways 1
Magnetic Variation 21.751° W

METAR

SBJP 211100Z 13006KT 080V150 9999 BKN015 27/24 Q1013

Decode

TAF

TAF SBJP 210200Z 2106/2206 19006KT 8000 SCT017 TN23/2106Z TX29/2115Z PROB40 TEMPO 2107/2108 5000 SHRA SCT012 BKN017 BECMG 2110/2112 12011KT BKN020 PROB40 TEMPO 2114/2116 4000 RA BKN012 BECMG 2117/2118 SCT023 BECMG 2120/2121 13006KT BECMG 2201/2203 19007KT RMK PEI

Decode

Destination Runways

ID Width Length Bearing (true) Bearing (mag) Surface Threshold Offset Overrun Length
16 148 ft / 45 m 8,282 ft / 2,524 m 135.67° 157.42° Asphalt 0 ft / 0 m 0 ft / 0 m
34 148 ft / 45 m 8,282 ft / 2,524 m 315.67° 337.42° Asphalt 0 ft / 0 m 200 ft / 61 m

Popular Alternatives